Time;durP1;ratioP1;P1;durP2;ratioP2;P2;SDS_P1;SDS_P2;PMS_P1;PMS_P2;Temp;Humidity;BMP_temperature;BMP_pressure;BME280_temperature;BME280_humidity;BME280_pressure;Samples;Min_cycle;Max_cycle;Signal;HPM_P1;HPM_P2
2021/05/28 00:01:51;;;;;;;2.80;1.10;;;;;;;;;;3597176;39;20376;-71
2021/05/28 00:04:17;;;;;;;1.92;0.90;;;;;;;;;;3587613;39;20401;-70
2021/05/28 00:06:43;;;;;;;2.63;0.80;;;;;;;;;;3594361;39;20412;-71
2021/05/28 00:09:09;;;;;;;2.22;0.77;;;;;;;;;;3591748;39;20379;-70
2021/05/28 00:11:36;;;;;;;2.35;1.00;;;;;;;;;;3594435;39;20690;-71
2021/05/28 00:14:02;;;;;;;2.13;0.90;;;16.80;97.90;;;;;;3596967;39;20397;-70
2021/05/28 00:16:28;;;;;;;2.07;1.03;;;17.50;71.90;;;;;;3594390;40;20406;-70
2021/05/28 00:18:54;;;;;;;1.10;1.00;;;17.50;70.00;;;;;;3590282;39;20623;-70
2021/05/28 00:21:20;;;;;;;3.03;0.70;;;17.60;69.90;;;;;;3596055;39;20498;-70
2021/05/28 00:23:47;;;;;;;2.43;0.80;;;17.50;69.30;;;;;;3596963;39;20370;-69
2021/05/28 00:26:13;;;;;;;1.00;0.70;;;17.60;69.50;;;;;;3596065;39;20461;-70
2021/05/28 00:28:41;;;;;;;1.98;0.90;;;;;;;;;;3597126;39;20369;-70
2021/05/28 00:31:08;;;;;;;1.40;0.80;;;;;;;;;;3590887;39;20769;-70
2021/05/28 00:33:34;;;;;;;2.58;0.82;;;;;;;;;;3596011;39;20653;-70
2021/05/28 00:36:00;;;;;;;2.08;1.00;;;;;;;;;;3590778;39;20776;-70
2021/05/28 00:38:26;;;;;;;1.50;0.90;;;;;;;;;;3590114;40;20817;-70
2021/05/28 00:40:52;;;;;;;2.45;0.93;;;;;;;;;;3597032;39;20369;-70
2021/05/28 00:43:18;;;;;;;2.38;0.77;;;;;;;;;;3598640;39;20364;-70
2021/05/28 00:45:45;;;;;;;2.67;0.77;;;;;;;;;;3597032;40;20376;-70
2021/05/28 00:48:11;;;;;;;1.40;0.70;;;;;;;;;;3598303;39;20369;-70
2021/05/28 00:50:38;;;;;;;1.80;0.80;;;;;;;;;;3597170;39;20625;-70
2021/05/28 00:53:04;;;;;;;1.98;0.90;;;;;;;;;;3586251;40;20416;-70
2021/05/28 00:55:30;;;;;;;1.42;0.70;;;;;;;;;;3596908;39;20738;-69
2021/05/28 00:57:57;;;;;;;1.50;0.73;;;;;;;;;;3596874;39;20367;-70
2021/05/28 01:00:25;;;;;;;1.92;0.80;;;;;;;;;;3596965;40;20376;-70
2021/05/28 01:02:52;;;;;;;2.23;0.87;;;;;;;;;;3597580;39;20398;-70
2021/05/28 01:05:19;;;;;;;1.20;0.70;;;;;;;;;;3588827;39;20400;-70
2021/05/28 01:07:45;;;;;;;2.45;0.90;;;;;;;;;;3583283;40;20706;-70
2021/05/28 01:10:12;;;;;;;1.65;0.88;;;17.60;68.20;;;;;;3574619;40;20395;-70
2021/05/28 01:12:38;;;;;;;1.88;0.85;;;;;;;;;;3581319;40;20532;-70
2021/05/28 01:15:06;;;;;;;2.30;0.80;;;;;;;;;;3578521;40;20399;-70
2021/05/28 01:17:32;;;;;;;2.30;0.70;;;;;;;;;;3572660;40;20389;-70
2021/05/28 01:19:59;;;;;;;1.58;0.90;;;;;;;;;;3567074;40;20369;-70
2021/05/28 01:22:27;;;;;;;1.70;1.02;;;;;;;;;;3576477;40;20415;-70
2021/05/28 01:24:53;;;;;;;2.80;0.90;;;;;;;;;;3575534;40;20478;-70
2021/05/28 01:27:19;;;;;;;2.73;1.20;;;;;;;;;;3575488;40;20638;-70
2021/05/28 01:29:46;;;;;;;1.30;0.82;;;;;;;;;;3571755;40;20444;-70
2021/05/28 01:32:12;;;;;;;1.30;0.80;;;;;;;;;;3565287;40;20426;-70
2021/05/28 01:34:38;;;;;;;1.23;0.68;;;;;;;;;;3576223;40;20387;-70
2021/05/28 01:37:05;;;;;;;1.67;1.10;;;;;;;;;;3576267;40;20376;-70
2021/05/28 01:39:32;;;;;;;1.48;0.77;;;;;;;;;;3575516;40;20392;-70
2021/05/28 01:41:58;;;;;;;2.90;0.90;;;;;;;;;;3576484;40;20458;-70
2021/05/28 01:44:24;;;;;;;2.55;0.70;;;;;;;;;;3568734;40;20383;-70
2021/05/28 01:46:50;;;;;;;4.00;0.80;;;;;;;;;;3570974;40;20632;-70
2021/05/28 01:49:17;;;;;;;2.30;0.90;;;;;;;;;;3574921;40;20382;-70
2021/05/28 01:51:48;;;;;;;1.45;0.90;;;;;;;;;;3579918;40;20418;-70
2021/05/28 01:54:15;;;;;;;1.50;0.68;;;;;;;;;;3578410;40;20384;-70
2021/05/28 01:56:45;;;;;;;2.67;0.90;;;;;;;;;;3580422;40;20362;-70
2021/05/28 01:59:13;;;;;;;2.55;0.90;;;;;;;;;;3579239;40;20384;-70
2021/05/28 02:01:39;;;;;;;1.87;1.00;;;;;;;;;;3573311;40;20863;-70
2021/05/28 02:04:05;;;;;;;1.40;0.70;;;;;;;;;;3576992;40;20376;-73
2021/05/28 02:06:32;;;;;;;2.50;1.58;;;;;;;;;;3594652;39;20896;-73
2021/05/28 02:08:58;;;;;;;1.60;0.77;;;;;;;;;;3597357;39;20477;-73
2021/05/28 02:11:25;;;;;;;2.13;0.88;;;;;;;;;;3582961;40;20493;-73
2021/05/28 02:13:52;;;;;;;1.30;0.70;;;;;;;;;;3599382;39;20387;-73
2021/05/28 02:16:18;;;;;;;2.67;0.80;;;;;;;;;;3602605;39;20384;-73
2021/05/28 02:18:44;;;;;;;1.13;0.70;;;;;;;;;;3597802;39;20395;-73
2021/05/28 02:21:10;;;;;;;1.10;0.80;;;;;;;;;;3604218;39;20776;-73
2021/05/28 02:23:36;;;;;;;1.65;0.90;;;;;;;;;;3598728;39;20380;-74
2021/05/28 02:26:03;;;;;;;1.50;0.60;;;;;;;;;;3595057;39;20371;-73
2021/05/28 02:28:29;;;;;;;1.17;0.85;;;;;;;;;;3595853;39;20353;-74
2021/05/28 02:30:56;;;;;;;1.20;0.80;;;;;;;;;;3598643;39;20446;-73
2021/05/28 02:33:22;;;;;;;1.23;0.80;;;;;;;;;;3593507;40;20486;-73
2021/05/28 02:35:48;;;;;;;1.53;0.60;;;;;;;;;;3590899;39;20406;-73
2021/05/28 02:38:14;;;;;;;2.13;0.70;;;;;;;;;;3603565;39;20400;-73
2021/05/28 02:40:40;;;;;;;1.38;0.70;;;;;;;;;;3598636;39;20361;-73
2021/05/28 02:43:06;;;;;;;2.05;0.80;;;;;;;;;;3587270;40;20398;-73
2021/05/28 02:45:33;;;;;;;2.00;1.00;;;;;;;;;;3589240;40;20411;-73
2021/05/28 02:48:00;;;;;;;1.80;0.70;;;;;;;;;;3601806;39;20675;-73
2021/05/28 02:50:32;;;;;;;2.08;0.80;;;;;;;;;;3602734;39;20619;-73
2021/05/28 02:53:00;;;;;;;1.73;0.65;;;;;;;;;;3594003;39;20386;-73
2021/05/28 02:55:26;;;;;;;1.77;0.80;;;;;;;;;;3596815;39;20381;-73
2021/05/28 02:57:52;;;;;;;1.73;0.80;;;;;;;;;;3597215;39;20361;-73
2021/05/28 03:00:20;;;;;;;1.53;0.73;;;;;;;;;;3598988;39;20368;-73
2021/05/28 03:02:46;;;;;;;1.92;0.77;;;;;;;;;;3598347;39;20384;-73
2021/05/28 03:05:13;;;;;;;1.30;0.75;;;;;;;;;;3598544;39;20416;-73
2021/05/28 03:07:39;;;;;;;1.88;0.82;;;;;;;;;;3598411;39;20376;-72
2021/05/28 03:10:06;;;;;;;1.10;0.80;;;;;;;;;;3599386;39;20376;-73
2021/05/28 03:12:32;;;;;;;2.10;0.75;;;;;;;;;;3603885;39;20389;-73
2021/05/28 03:14:58;;;;;;;1.92;1.00;;;;;;;;;;3588559;40;20400;-72
2021/05/28 03:17:26;;;;;;;2.20;0.80;;;;;;;;;;3598134;39;20365;-72
2021/05/28 03:19:52;;;;;;;3.00;1.10;;;;;;;;;;3598232;39;20389;-73
2021/05/28 03:22:35;;;;;;;1.30;0.90;;;;;;;;;;3598084;39;20670;-73
2021/05/28 03:25:02;;;;;;;2.00;0.77;;;;;;;;;;3598655;40;20416;-73
2021/05/28 03:27:28;;;;;;;4.15;1.05;;;;;;;;;;3592792;39;20381;-74
2021/05/28 03:29:54;;;;;;;4.10;1.13;;;;;;;;;;3602165;39;20369;-71
2021/05/28 03:32:20;;;;;;;3.05;0.90;;;;;;;;;;3603117;39;20810;-73
2021/05/28 03:34:47;;;;;;;3.38;2.20;;;;;;;;;;3592782;40;20375;-72
2021/05/28 03:37:13;;;;;;;3.90;2.30;;;;;;;;;;3597605;39;20373;-72
2021/05/28 03:39:40;;;;;;;3.33;1.92;;;;;;;;;;3598083;39;20383;-73
2021/05/28 03:42:06;;;;;;;3.53;2.15;;;;;;;;;;3597937;39;20777;-72
2021/05/28 03:44:32;;;;;;;4.10;2.38;;;;;;;;;;3584933;39;20692;-73
2021/05/28 03:46:59;;;;;;;5.72;2.30;;;;;;;;;;3601982;39;20407;-73
2021/05/28 03:49:25;;;;;;;4.13;2.58;;;;;;;;;;3595823;39;20374;-73
2021/05/28 03:51:51;;;;;;;3.38;1.63;;;;;;;;;;3593025;39;20361;-73
2021/05/28 03:54:17;;;;;;;1.13;0.90;;;;;;;;;;3598851;39;20493;-74
2021/05/28 03:56:44;;;;;;;1.63;0.82;;;;;;;;;;3604083;39;20393;-73
2021/05/28 03:59:10;;;;;;;2.38;0.80;;;;;;;;;;3587991;40;20481;-73
2021/05/28 04:01:36;;;;;;;2.65;0.93;;;;;;;;;;3581469;40;20854;-72
2021/05/28 04:04:03;;;;;;;1.63;0.90;;;;;;;;;;3604311;39;20893;-73
2021/05/28 04:06:29;;;;;;;1.70;1.13;;;;;;;;;;3574609;39;20412;-73
2021/05/28 04:08:55;;;;;;;1.70;0.80;;;;;;;;;;3583773;40;20374;-73
2021/05/28 04:11:21;;;;;;;1.90;0.80;;;;;;;;;;3578914;40;20382;-72
2021/05/28 04:13:49;;;;;;;1.92;0.80;;;;;;;;;;3577291;40;20406;-72
2021/05/28 04:16:15;;;;;;;1.57;1.00;;;;;;;;;;3577817;40;20392;-73
2021/05/28 04:18:41;;;;;;;1.67;0.80;;;;;;;;;;3577358;40;20374;-73
2021/05/28 04:21:08;;;;;;;1.77;1.00;;;;;;;;;;3577458;40;20388;-73
2021/05/28 04:23:34;;;;;;;1.88;0.80;;;;;;;;;;3577300;40;20454;-72
2021/05/28 04:26:00;;;;;;;1.60;0.85;;;;;;;;;;3576899;40;20398;-73
2021/05/28 04:28:28;;;;;;;1.80;0.85;;;;;;;;;;3567983;40;20482;-72
2021/05/28 04:30:55;;;;;;;1.10;0.80;;;;;;;;;;3578977;40;20407;-73
2021/05/28 04:33:21;;;;;;;3.28;1.20;;;;;;;;;;3576307;40;20497;-73
2021/05/28 04:35:47;;;;;;;1.70;0.80;;;;;;;;;;3577145;40;20498;-73
2021/05/28 04:38:13;;;;;;;2.50;0.90;;;;;;;;;;3574576;40;20398;-73
2021/05/28 04:40:39;;;;;;;1.85;1.00;;;;;;;;;;3576215;40;20388;-73
2021/05/28 04:43:06;;;;;;;2.17;1.08;;;;;;;;;;3583305;40;20375;-72
2021/05/28 04:45:32;;;;;;;3.25;0.90;;;;;;;;;;3575954;40;20788;-72
2021/05/28 04:47:59;;;;;;;2.08;0.85;;;;;;;;;;3580311;40;20378;-72
2021/05/28 04:50:31;;;;;;;2.10;0.95;;;;;;;;;;3579633;40;20376;-72
2021/05/28 04:52:58;;;;;;;2.90;1.00;;;;;;;;;;3582589;40;20375;-73
2021/05/28 04:55:25;;;;;;;1.83;0.85;;;;;;;;;;3576121;40;20407;-72
2021/05/28 04:57:51;;;;;;;1.95;0.85;;;;;;;;;;3582572;40;20808;-73
2021/05/28 05:00:18;;;;;;;2.72;1.48;;;17.00;68.30;;;;;;3575844;40;20409;-72
2021/05/28 05:02:44;;;;;;;2.33;1.10;;;15.70;79.60;;;;;;3573903;40;20412;-72
2021/05/28 05:05:12;;;;;;;1.92;0.90;;;15.80;77.20;;;;;;3581749;40;20416;-72
2021/05/28 05:07:38;;;;;;;2.08;1.08;;;15.70;77.90;;;;;;3595812;39;20365;-73
2021/05/28 05:10:05;;;;;;;2.63;1.03;;;15.60;80.40;;;;;;3596297;39;20679;-73
2021/05/28 05:12:33;;;;;;;3.13;1.05;;;15.50;81.90;;;;;;3581518;40;20447;-73
2021/05/28 05:14:59;;;;;;;1.45;1.00;;;15.50;81.00;;;;;;3590358;39;20409;-73
2021/05/28 05:17:25;;;;;;;2.05;1.10;;;15.60;80.60;;;;;;3600493;39;20383;-73
2021/05/28 05:19:51;;;;;;;1.92;1.10;;;15.70;79.00;;;;;;3600433;39;20395;-73
2021/05/28 05:22:18;;;;;;;2.70;1.20;;;15.70;76.90;;;;;;3595979;39;20404;-73
2021/05/28 05:24:43;;;;;;;2.47;1.20;;;15.90;77.20;;;;;;3594736;39;20449;-73
2021/05/28 05:27:09;;;;;;;1.55;1.00;;;15.90;76.80;;;;;;3594922;40;20388;-73
2021/05/28 05:29:35;;;;;;;2.17;1.00;;;15.80;78.20;;;;;;3588072;40;20397;-74
2021/05/28 05:32:02;;;;;;;1.92;0.90;;;15.80;78.40;;;;;;3595422;39;20631;-73
2021/05/28 05:34:28;;;;;;;1.88;1.00;;;15.70;77.10;;;;;;3602036;39;20645;-72
2021/05/28 05:36:55;;;;;;;2.93;1.10;;;15.80;76.70;;;;;;3597417;39;20383;-73
2021/05/28 05:39:22;;;;;;;2.97;1.13;;;15.90;76.80;;;;;;3587686;40;20448;-73
2021/05/28 05:41:48;;;;;;;2.58;1.13;;;15.90;76.50;;;;;;3594987;39;20392;-75
2021/05/28 05:44:14;;;;;;;1.88;0.95;;;15.90;77.90;;;;;;3596542;40;20742;-73
2021/05/28 05:46:41;;;;;;;2.58;1.00;;;15.80;77.60;;;;;;3594247;40;20365;-73
2021/05/28 05:49:07;;;;;;;3.33;1.20;;;15.80;77.50;;;;;;3596754;39;20384;-73
2021/05/28 05:51:33;;;;;;;2.47;1.20;;;15.90;78.30;;;;;;3598833;39;20388;-73
2021/05/28 05:53:59;;;;;;;3.55;1.00;;;15.90;78.50;;;;;;3597975;40;20407;-73
2021/05/28 05:56:26;;;;;;;1.88;1.00;;;;;;;;;;3598541;39;20439;-73
2021/05/28 05:58:52;;;;;;;1.70;1.02;;;;;;;;;;3598370;39;20461;-73
2021/05/28 06:01:19;;;;;;;2.28;1.17;;;;;;;;;;3592976;39;20381;-73
2021/05/28 06:03:45;;;;;;;2.50;0.90;;;;;;;;;;3608218;39;20386;-73
2021/05/28 06:06:12;;;;;;;2.67;1.25;;;;;;;;;;3607087;39;20406;-73
2021/05/28 06:08:38;;;;;;;1.97;1.10;;;;;;;;;;3602597;39;20444;-74
2021/05/28 06:11:04;;;;;;;1.67;0.80;;;;;;;;;;3601293;39;20368;-73
2021/05/28 06:13:31;;;;;;;3.45;1.10;;;;;;;;;;3599418;39;20375;-73
2021/05/28 06:15:57;;;;;;;4.95;1.27;;;;;;;;;;3604080;39;20410;-73
2021/05/28 06:18:23;;;;;;;2.53;1.05;;;;;;;;;;3598056;40;20392;-73
2021/05/28 06:20:50;;;;;;;1.50;0.90;;;;;;;;;;3590423;40;20392;-73
2021/05/28 06:23:16;;;;;;;2.25;1.02;;;;;;;;;;3598799;39;20372;-73
2021/05/28 06:25:44;;;;;;;3.22;1.10;;;;;;;;;;3588827;40;20387;-73
2021/05/28 06:28:11;;;;;;;2.53;1.13;;;;;;;;;;3589002;40;20396;-72
2021/05/28 06:30:38;;;;;;;2.60;1.00;;;;;;;;;;3599763;39;20367;-73
2021/05/28 06:33:05;;;;;;;3.63;1.20;;;;;;;;;;3603755;39;20485;-72
2021/05/28 06:35:31;;;;;;;2.85;1.23;;;;;;;;;;3591477;39;20762;-74
2021/05/28 06:37:58;;;;;;;2.83;0.95;;;;;;;;;;3598318;40;20377;-73
2021/05/28 06:40:24;;;;;;;3.35;1.17;;;;;;;;;;3598450;39;20420;-73
2021/05/28 06:42:50;;;;;;;1.60;0.95;;;;;;;;;;3598281;39;20658;-73
2021/05/28 06:45:18;;;;;;;2.10;0.85;;;;;;;;;;3593284;40;20724;-73
2021/05/28 06:47:45;;;;;;;3.95;1.15;;;;;;;;;;3605874;39;20384;-73
2021/05/28 06:50:11;;;;;;;3.33;1.30;;;;;;;;;;3598817;39;20365;-73
2021/05/28 06:52:38;;;;;;;2.13;1.13;;;;;;;;;;3590725;39;20456;-74
2021/05/28 06:55:04;;;;;;;2.63;1.20;;;;;;;;;;3589182;40;20400;-73
2021/05/28 06:57:30;;;;;;;1.40;0.90;;;;;;;;;;3597998;39;20357;-72
2021/05/28 06:59:57;;;;;;;1.63;1.10;;;;;;;;;;3589328;40;20708;-73
2021/05/28 07:02:23;;;;;;;2.10;1.10;;;;;;;;;;3598388;39;20403;-76
2021/05/28 07:04:50;;;;;;;2.65;1.00;;;;;;;;;;3590999;39;20416;-73
2021/05/28 07:07:16;;;;;;;3.78;1.27;;;;;;;;;;3589288;40;20373;-73
2021/05/28 07:09:42;;;;;;;2.00;1.00;;;;;;;;;;3598409;40;20377;-73
2021/05/28 07:12:09;;;;;;;3.83;1.10;;;;;;;;;;3597983;39;20373;-73
2021/05/28 07:14:35;;;;;;;2.20;0.90;;;;;;;;;;3598401;39;20373;-73
2021/05/28 07:17:01;;;;;;;2.10;0.98;;;;;;;;;;3600160;39;20375;-73
2021/05/28 07:19:27;;;;;;;1.70;1.00;;;;;;;;;;3603727;39;20875;-74
2021/05/28 07:21:54;;;;;;;2.35;0.98;;;;;;;;;;3597988;39;20376;-73
2021/05/28 07:24:20;;;;;;;1.70;0.70;;;;;;;;;;3598040;39;20384;-73
2021/05/28 07:26:47;;;;;;;4.72;1.20;;;;;;;;;;3605107;39;20393;-73
2021/05/28 07:29:13;;;;;;;2.13;0.77;;;16.00;78.70;;;;;;3591153;39;20377;-74
2021/05/28 07:31:39;;;;;;;1.50;1.10;;;18.50;81.30;;;;;;3598119;40;20470;-73
2021/05/28 07:34:05;;;;;;;2.80;1.02;;;;;;;;;;3599636;39;20375;-73
2021/05/28 07:36:31;;;;;;;2.92;1.00;;;;;;;;;;3603112;39;20377;-74
2021/05/28 07:38:58;;;;;;;2.50;0.90;;;;;;;;;;3597979;39;20746;-73
2021/05/28 07:41:24;;;;;;;2.03;0.95;;;;;;;;;;3598387;39;20388;-73
2021/05/28 07:43:51;;;;;;;2.50;0.70;;;;;;;;;;3598550;39;20403;-73
2021/05/28 07:46:17;;;;;;;1.67;0.60;;;19.20;83.00;;;;;;3588909;40;20437;-73
2021/05/28 07:48:43;;;;;;;2.53;0.88;;;19.50;83.60;;;;;;3588706;40;20396;-73
2021/05/28 07:51:09;;;;;;;2.70;0.88;;;19.50;82.90;;;;;;3589111;40;20407;-74
2021/05/28 07:53:38;;;;;;;2.23;0.83;;;19.90;99.40;;;;;;3598017;39;20400;-73
2021/05/28 07:56:05;;;;;;;2.10;0.90;;;20.00;87.70;;;;;;3598033;39;21769;-73
2021/05/28 07:58:31;;;;;;;2.00;0.80;;;19.80;84.50;;;;;;3602468;39;20411;-73
2021/05/28 08:00:57;;;;;;;3.30;0.93;;;;;;;;;;3599891;39;20454;-73
2021/05/28 08:03:24;;;;;;;3.28;0.90;;;;;;;;;;3591765;39;20766;-73
2021/05/28 08:05:51;;;;;;;3.23;0.83;;;;;;;;;;3588407;40;20423;-73
2021/05/28 08:08:17;;;;;;;1.90;0.70;;;;;;;;;;3597854;39;20388;-73
2021/05/28 08:10:43;;;;;;;4.30;1.13;;;;;;;;;;3601504;39;20363;-73
2021/05/28 08:13:10;;;;;;;2.40;0.70;;;;;;;;;;3600478;39;20403;-74
2021/05/28 08:15:36;;;;;;;3.00;0.80;;;;;;;;;;3597606;39;20368;-73
2021/05/28 08:18:04;;;;;;;2.50;0.75;;;;;;;;;;3588264;40;20392;-73
2021/05/28 08:20:31;;;;;;;3.05;0.93;;;;;;;;;;3597445;39;20403;-73
2021/05/28 08:22:59;;;;;;;2.10;1.00;;;;;;;;;;3597952;40;20373;-73
2021/05/28 08:25:25;;;;;;;4.60;0.60;;;19.80;84.90;;;;;;3597578;39;20376;-73
2021/05/28 08:27:51;;;;;;;2.90;0.63;;;21.00;85.60;;;;;;3597542;39;20514;-74
2021/05/28 08:30:19;;;;;;;2.85;0.77;;;;;;;;;;3597571;39;20373;-74
2021/05/28 08:32:46;;;;;;;2.15;0.75;;;;;;;;;;3591303;39;20383;-73
2021/05/28 08:35:12;;;;;;;2.17;0.55;;;;;;;;;;3597968;39;20384;-73
2021/05/28 08:37:39;;;;;;;1.40;0.60;;;;;;;;;;3594959;39;20359;-73
2021/05/28 08:40:08;;;;;;;1.45;0.40;;;21.00;83.40;;;;;;3592568;40;20401;-73
2021/05/28 08:42:34;;;;;;;1.30;0.40;;;;;;;;;;3587583;40;20642;-74
2021/05/28 08:45:01;;;;;;;1.70;0.30;;;;;;;;;;3602896;39;20374;-73
2021/05/28 08:47:28;;;;;;;2.00;0.40;;;;;;;;;;3575351;39;20768;-74
2021/05/28 08:49:59;;;;;;;1.95;0.40;;;;;;;;;;3601672;39;20636;-73
2021/05/28 08:52:25;;;;;;;1.30;0.30;;;;;;;;;;3600445;39;20404;-73
2021/05/28 08:54:52;;;;;;;1.13;0.20;;;;;;;;;;3598097;39;20419;-73
2021/05/28 08:57:19;;;;;;;1.25;0.20;;;;;;;;;;3597934;40;20353;-73
2021/05/28 08:59:45;;;;;;;1.15;0.25;;;21.60;82.50;;;;;;3588833;40;20404;-73
2021/05/28 09:02:40;;;;;;;2.08;0.40;;;22.30;80.00;;;;;;3597933;39;20384;-74
2021/05/28 09:05:12;;;;;;;1.60;0.45;;;22.00;79.50;;;;;;3580659;39;20440;-74
2021/05/28 09:07:39;;;;;;;0.95;0.38;;;21.70;81.90;;;;;;3594814;39;20389;-75
2021/05/28 09:10:39;;;;;;;1.90;0.40;;;21.70;81.40;;;;;;3597787;39;20708;-73
2021/05/28 09:13:13;;;;;;;1.50;0.40;;;21.50;79.70;;;;;;3556095;40;20731;-73
2021/05/28 09:15:40;;;;;;;3.05;0.77;;;21.40;83.20;;;;;;3549656;40;20918;-73
2021/05/28 09:18:07;;;;;;;1.70;0.60;;;21.50;81.00;;;;;;3556189;40;20394;-74
2021/05/28 09:20:34;;;;;;;0.57;0.37;;;21.90;81.30;;;;;;3557399;40;20517;-74
2021/05/28 09:23:08;;;;;;;2.95;0.70;;;22.60;80.10;;;;;;3552214;40;20799;-73
2021/05/28 09:25:52;;;;;;;1.40;0.47;;;22.50;82.30;;;;;;3600189;39;20387;-73
2021/05/28 09:28:18;;;;;;;3.90;0.60;;;22.50;86.20;;;;;;3597900;39;20372;-74
2021/05/28 09:30:54;;;;;;;1.40;0.50;;;22.50;84.50;;;;;;3596970;39;20392;-73
2021/05/28 09:33:21;;;;;;;0.88;0.40;;;22.20;84.80;;;;;;3597722;40;20448;-74
2021/05/28 09:35:49;;;;;;;1.45;0.40;;;;;;;;;;3605163;39;20786;-74
2021/05/28 09:38:20;;;;;;;0.45;0.22;;;;;;;;;;3597998;39;20349;-74
2021/05/28 09:40:47;;;;;;;2.05;0.50;;;;;;;;;;3597853;39;20830;-73
2021/05/28 09:43:14;;;;;;;1.20;0.30;;;;;;;;;;3597444;39;20365;-73
2021/05/28 09:45:41;;;;;;;0.70;0.30;;;;;;;;;;3604839;39;20367;-74
2021/05/28 09:48:21;;;;;;;1.20;0.40;;;;;;;;;;3600128;39;20379;-73
2021/05/28 09:50:49;;;;;;;0.57;0.40;;;;;;;;;;3595068;39;20495;-73
2021/05/28 09:53:27;;;;;;;0.60;0.30;;;22.10;82.80;;;;;;3597688;39;20766;-73
2021/05/28 09:55:53;;;;;;;1.25;0.20;;;22.00;82.70;;;;;;3598139;39;20831;-73
2021/05/28 09:58:19;;;;;;;0.80;0.30;;;22.30;81.30;;;;;;3607674;39;20628;-73
2021/05/28 10:00:46;;;;;;;1.30;0.13;;;;;;;;;;3607620;39;20363;-74
2021/05/28 10:03:15;;;;;;;0.68;0.20;;;22.80;77.30;;;;;;3597234;39;20408;-73
2021/05/28 10:05:42;;;;;;;0.47;0.20;;;;;;;;;;3597164;39;20415;-74
2021/05/28 10:08:12;;;;;;;1.42;0.30;;;23.40;81.30;;;;;;3595009;39;20444;-74
2021/05/28 10:10:39;;;;;;;1.05;0.28;;;23.60;90.90;;;;;;3592657;40;20376;-73
2021/05/28 10:13:12;;;;;;;1.38;0.40;;;23.70;77.00;;;;;;3603637;39;20406;-73
2021/05/28 10:15:41;;;;;;;3.10;0.30;;;23.70;97.80;;;;;;3597372;39;20369;-73
2021/05/28 10:18:07;;;;;;;1.10;0.30;;;23.90;97.80;;;;;;3597033;39;20413;-73
2021/05/28 10:20:33;;;;;;;0.95;0.30;;;;;;;;;;3597109;39;20758;-73
2021/05/28 10:23:00;;;;;;;0.77;0.40;;;;;;;;;;3591758;39;20417;-74
2021/05/28 10:25:27;;;;;;;1.27;0.38;;;;;;;;;;3591454;39;20428;-73
2021/05/28 10:27:54;;;;;;;0.95;0.35;;;;;;;;;;3587041;39;20407;-73
2021/05/28 10:30:25;;;;;;;0.50;0.38;;;23.10;99.30;;;;;;3594829;39;20372;-73
2021/05/28 10:33:10;;;;;;;1.70;0.30;;;;;;;;;;3597028;39;20384;-73
2021/05/28 10:35:40;;;;;;;1.25;0.30;;;23.80;73.60;;;;;;3590321;39;20351;-73
2021/05/28 10:38:44;;;;;;;1.50;0.30;;;23.70;72.50;;;;;;3594273;39;20762;-74
2021/05/28 10:41:33;;;;;;;1.30;0.30;;;23.40;73.80;;;;;;3588861;39;20374;-74
2021/05/28 10:44:02;;;;;;;0.70;0.40;;;23.60;73.20;;;;;;3574438;40;20447;-73
2021/05/28 10:46:29;;;;;;;1.37;0.30;;;23.70;71.70;;;;;;3568271;40;20407;-73
2021/05/28 10:49:11;;;;;;;0.93;0.40;;;23.80;72.40;;;;;;3576879;40;20408;-73
2021/05/28 10:51:59;;;;;;;2.00;0.70;;;24.20;72.20;;;;;;3574220;40;20384;-75
2021/05/28 10:54:28;;;;;;;1.55;0.40;;;24.00;73.40;;;;;;3578877;40;20408;-74
2021/05/28 10:56:55;;;;;;;2.10;0.27;;;23.90;74.40;;;;;;3565920;40;20433;-74
2021/05/28 10:59:22;;;;;;;1.90;0.50;;;24.00;74.20;;;;;;3574203;40;20382;-74
2021/05/28 11:01:51;;;;;;;0.70;0.40;;;24.20;73.30;;;;;;3571615;40;20456;-73
2021/05/28 11:04:24;;;;;;;2.10;0.30;;;23.90;73.70;;;;;;3567054;40;20425;-74
2021/05/28 11:07:15;;;;;;;1.77;0.50;;;24.10;69.40;;;;;;3565884;40;20423;-73
2021/05/28 11:09:43;;;;;;;1.80;0.40;;;23.40;72.00;;;;;;3564000;40;20390;-73
2021/05/28 11:12:11;;;;;;;1.10;0.40;;;23.70;70.10;;;;;;3563234;40;20394;-74
2021/05/28 11:14:40;;;;;;;1.35;0.40;;;23.80;73.70;;;;;;3555888;40;20424;-73
2021/05/28 11:17:15;;;;;;;0.90;0.43;;;23.70;70.90;;;;;;3564585;40;20389;-74
2021/05/28 11:19:44;;;;;;;2.30;0.50;;;23.60;74.20;;;;;;3565293;40;20395;-73
2021/05/28 11:22:12;;;;;;;0.90;0.30;;;24.00;71.30;;;;;;3579352;40;20394;-74
2021/05/28 11:24:43;;;;;;;0.90;0.38;;;24.00;71.20;;;;;;3580914;40;20780;-73
2021/05/28 11:27:14;;;;;;;1.40;0.43;;;23.60;69.80;;;;;;3579298;40;20538;-74
2021/05/28 11:29:41;;;;;;;1.43;0.40;;;23.20;73.00;;;;;;3580704;40;20393;-74
2021/05/28 11:32:30;;;;;;;1.30;0.60;;;23.50;71.60;;;;;;3583244;40;20716;-73
2021/05/28 11:35:10;;;;;;;1.85;0.50;;;23.70;71.90;;;;;;3585507;40;20407;-74
2021/05/28 11:37:41;;;;;;;0.65;0.30;;;23.80;72.50;;;;;;3583950;40;20378;-73
2021/05/28 11:40:13;;;;;;;2.45;0.60;;;;;;;;;;3574510;40;20504;-74
2021/05/28 11:42:41;;;;;;;1.43;0.40;;;;;;;;;;3575143;40;20443;-74
2021/05/28 11:45:09;;;;;;;1.10;0.40;;;24.70;99.90;;;;;;3586573;40;20954;-74
2021/05/28 11:47:37;;;;;;;1.48;0.50;;;;;;;;;;3576175;40;20448;-73
2021/05/28 11:50:04;;;;;;;2.03;0.40;;;;;;;;;;3581848;40;20757;-74
2021/05/28 11:52:30;;;;;;;1.50;0.50;;;25.20;69.80;;;;;;3583044;40;20390;-74
2021/05/28 11:55:07;;;;;;;2.35;0.70;;;;;;;;;;3585655;40;20383;-74
2021/05/28 11:57:34;;;;;;;1.90;0.50;;;;;;;;;;3584892;40;20374;-74
2021/05/28 12:00:06;;;;;;;2.10;0.50;;;;;;;;;;3584538;40;20389;-74
2021/05/28 12:02:40;;;;;;;1.30;0.50;;;;;;;;;;3577894;40;20410;-74
2021/05/28 12:05:14;;;;;;;2.45;0.70;;;;;;;;;;3587047;40;20382;-74
2021/05/28 12:07:40;;;;;;;2.58;0.50;;;;;;;;;;3600863;39;20594;-74
2021/05/28 12:10:07;;;;;;;2.40;0.60;;;;;;;;;;3596525;39;20388;-74
2021/05/28 12:13:04;;;;;;;2.33;0.93;;;25.40;69.10;;;;;;3597672;39;20365;-74
2021/05/28 12:15:33;;;;;;;1.43;0.57;;;;;;;;;;3559658;40;20396;-74
2021/05/28 12:18:01;;;;;;;1.00;0.50;;;;;;;;;;3562676;40;20434;-73
2021/05/28 12:20:28;;;;;;;2.10;0.50;;;;;;;;;;3560406;40;20463;-73
2021/05/28 12:23:16;;;;;;;2.20;0.60;;;24.40;69.30;;;;;;3553536;40;20405;-74
2021/05/28 12:25:45;;;;;;;2.70;0.70;;;24.00;70.00;;;;;;3559567;40;20416;-74
2021/05/28 12:28:13;;;;;;;2.75;0.43;;;;;;;;;;3563592;40;20776;-74
2021/05/28 12:30:41;;;;;;;3.20;0.50;;;24.50;68.70;;;;;;3575418;40;20456;-75
2021/05/28 12:33:08;;;;;;;1.30;0.43;;;25.30;67.10;;;;;;3592445;39;20497;-74
2021/05/28 12:35:34;;;;;;;1.48;0.40;;;25.60;65.20;;;;;;3588155;39;20658;-73
2021/05/28 12:38:12;;;;;;;3.50;0.60;;;25.60;66.90;;;;;;3598081;40;20373;-74
2021/05/28 12:40:42;;;;;;;0.80;0.40;;;;;;;;;;3597787;39;20373;-74
2021/05/28 12:43:08;;;;;;;2.72;0.45;;;26.20;90.00;;;;;;3597063;39;20380;-74
2021/05/28 12:45:35;;;;;;;1.00;0.40;;;;;;;;;;3600421;39;20376;-74
2021/05/28 12:48:03;;;;;;;0.95;0.50;;;26.20;64.10;;;;;;3590995;39;20366;-75
2021/05/28 12:50:33;;;;;;;1.80;0.40;;;;;;;;;;3593692;39;20390;-75
2021/05/28 12:53:00;;;;;;;2.08;0.40;;;;;;;;;;3600117;39;20458;-74
2021/05/28 12:55:27;;;;;;;2.15;0.50;;;;;;;;;;3598074;40;20711;-75
2021/05/28 12:57:53;;;;;;;1.10;0.40;;;25.90;64.40;;;;;;3598035;39;20376;-75
2021/05/28 13:00:34;;;;;;;0.75;0.40;;;27.20;62.50;;;;;;3596794;40;20451;-75
2021/05/28 13:03:00;;;;;;;2.00;0.40;;;27.30;60.20;;;;;;3588498;40;20518;-74
2021/05/28 13:05:36;;;;;;;1.33;0.32;;;27.40;60.60;;;;;;3597778;39;20410;-75
2021/05/28 13:08:03;;;;;;;1.35;0.50;;;;;;;;;;3597472;40;20774;-76
2021/05/28 13:10:30;;;;;;;2.10;0.60;;;;;;;;;;3597667;39;20367;-75
2021/05/28 13:13:21;;;;;;;2.50;0.50;;;27.60;60.20;;;;;;3607912;39;20362;-74
2021/05/28 13:15:47;;;;;;;2.85;0.45;;;27.50;61.10;;;;;;3591228;39;20638;-75
2021/05/28 13:18:14;;;;;;;0.73;0.30;;;27.60;59.10;;;;;;3597702;39;20388;-75
2021/05/28 13:20:42;;;;;;;2.83;0.40;;;27.70;59.50;;;;;;3603220;39;20409;-74
2021/05/28 13:23:20;;;;;;;2.03;0.80;;;27.60;59.40;;;;;;3595815;40;20466;-75
2021/05/28 13:25:47;;;;;;;2.37;0.50;;;;;;;;;;3595924;39;20412;-74
2021/05/28 13:28:14;;;;;;;2.40;0.50;;;;;;;;;;3591931;39;20367;-75
2021/05/28 13:30:43;;;;;;;2.00;0.43;;;27.80;58.40;;;;;;3592687;40;20402;-75
2021/05/28 13:33:19;;;;;;;1.20;0.40;;;;;;;;;;3593147;39;20634;-75
2021/05/28 13:35:47;;;;;;;1.02;0.40;;;27.50;60.00;;;;;;3597831;39;20349;-75
2021/05/28 13:38:14;;;;;;;1.50;0.40;;;27.30;60.20;;;;;;3597502;39;20428;-75
2021/05/28 13:40:41;;;;;;;2.35;0.50;;;27.80;58.50;;;;;;3598968;39;20464;-75
2021/05/28 13:43:07;;;;;;;2.35;0.32;;;;;;;;;;3603325;39;20432;-76
2021/05/28 13:45:34;;;;;;;1.60;0.40;;;28.10;58.50;;;;;;3597252;39;20827;-75
2021/05/28 13:48:00;;;;;;;1.20;0.40;;;28.30;58.40;;;;;;3597132;39;20487;-75
2021/05/28 13:50:34;;;;;;;1.25;0.45;;;28.30;56.60;;;;;;3595699;40;20400;-75
2021/05/28 13:53:03;;;;;;;1.17;0.50;;;28.20;57.50;;;;;;3597287;39;20743;-75
2021/05/28 13:55:29;;;;;;;2.50;0.60;;;;;;;;;;3591686;39;20362;-75
2021/05/28 13:57:55;;;;;;;1.53;0.30;;;;;;;;;;3598648;39;20366;-75
2021/05/28 14:00:22;;;;;;;2.60;0.50;;;28.50;57.80;;;;;;3601607;39;20401;-75
2021/05/28 14:02:48;;;;;;;3.30;0.57;;;27.40;62.00;;;;;;3597729;39;20385;-76
2021/05/28 14:05:15;;;;;;;2.30;0.80;;;27.40;60.70;;;;;;3597202;39;20432;-75